KAFP

Anson County - Jeff Cloud Field Airport

Wadesboro, North Carolina, USA
METAR KAFP 190445Z AUTO 00000KT 7SM CLR 21/20 A2993 RMK AO2 T02050196
Observed Flight Rules
Sep-19 @ 04:45 UTC (28 minutes ago) Visual Flight Rules
Visibility Clouds
7 miles
  • Clear skies
Temperatures Readings
Current 21°C / 70°F
Dewpoint 20°C / 68°F
Humidity 94%
Altimeter 29.93" Hg
Pressure 1014 hPa
Elevation 92
METAR KAFP 190445Z AUTO 00000KT 7SM CLR 21/20 A2993 RMK AO2 T02050196
Observed Flight Rules
Sep-19 @ 04:45 UTC
(28 minutes ago)
VFR
Clouds
  • Clear skies
Temperature Dewpoint
21°C / 70°F 20°C / 68°F
Humidity Altimeter Pressure
94% 29.93" Hg 1014 hPa